Data for 08/20/2005

Time Sea-Level Adjusted Pressure Absolute Pressure Temperature Relative Humidity Dew Point   
(mb) (inHg) (mb) (inHg) (C) (F) (%) (C) (F)
00:05 1020 30.12 850 25.1 13.9 56.9 50 3.7 38.7
00:10 1020 30.12 850 25.1 13.7 56.7 51 3.9 39.1
00:15 1021 30.15 850 25.1 13.5 56.3 52 3.9 39.1
00:20 1021 30.15 850 25.1 13.2 55.8 53 3.9 39.1
00:25 1021 30.15 850 25.1 13 55.5 53 3.8 38.8
00:30 1021 30.15 850 25.1 13 55.3 53 3.8 38.8
00:35 1021 30.15 850 25.1 12.9 55.2 53 3.6 38.6
00:40 1021 30.15 850 25.1 13.2 55.8 51 3.5 38.3
00:45 1021 30.15 850 25.1 13.2 55.7 52 3.6 38.5
00:50 1021 30.15 850 25.1 13.1 55.6 49 2.7 36.8
00:55 1021 30.15 850 25.1 13.7 56.7 49 3.2 37.8
01:00 1021 30.15 850 25.1 13.1 55.6 53 3.9 39
01:05 1021 30.15 850 25.1 13 55.3 45 1.4 34.6
01:10 1021 30.15 850 25.1 14.4 57.9 45 2.6 36.7
01:15 1021 30.15 850 25.1 14.6 58.2 45 3 37.3
01:20 1021 30.15 850 25.1 14.4 57.9 42 1.9 35.4
01:25 1021 30.15 850 25.1 14.2 57.5 45 2.4 36.3
01:30 1021 30.15 850 25.1 13.7 56.6 52 3.9 39.1
01:35 1021 30.15 850 25.1 12.6 54.6 53 3.4 38.1
01:40 1021 30.15 850 25.1 12.1 53.7 56 3.7 38.6
01:45 1021 30.15 850 25.1 11.9 53.4 56 3.4 38.2
01:50 1021 30.15 850 25.1 12.2 54 52 2.8 37
01:55 1021 30.15 850 25.1 12.7 54.8 48 2.1 35.8
02:00 1021 30.15 850 25.1 13 55.3 50 3 37.3
02:05 1021 30.15 850 25.1 12.9 55.3 46 1.8 35.2
02:10 1021 30.15 850 25.1 13.8 56.8 46 2.5 36.5
02:15 1021 30.15 851 25.13 13.3 55.9 48 2.4 36.4
02:20 1021 30.15 851 25.13 13.3 55.9 47 2.4 36.3
02:25 1021 30.15 851 25.13 13 55.3 49 2.7 36.8
02:30 1021 30.15 851 25.13 12.8 55 50 2.7 36.8
02:35 1021 30.15 851 25.13 12.6 54.7 50 2.4 36.4
02:40 1021 30.15 851 25.13 12.7 54.8 51 2.8 37.1
02:45 1021 30.15 851 25.13 12.4 54.3 52 2.9 37.1
02:50 1022 30.18 851 25.13 12 53.6 54 3 37.4
02:55 1022 30.18 851 25.13 11.8 53.2 54 2.8 37
03:00 1022 30.18 851 25.13 11.7 53.1 53 2.6 36.8
03:05 1022 30.18 851 25.13 11.8 53.2 54 2.7 36.9
03:10 1022 30.18 851 25.13 11.7 53 54 2.6 36.7
03:15 1022 30.18 851 25.13 12.1 53.7 52 2.5 36.5
03:20 1022 30.18 851 25.13 12.2 53.9 51 2.5 36.6
03:25 1022 30.18 851 25.13 12.2 54 51 2.4 36.3
03:30 1022 30.18 851 25.13 12.2 54 51 2.4 36.3
03:35 1022 30.18 851 25.13 12.1 53.7 51 2.4 36.3
03:40 1022 30.18 851 25.13 12.1 53.8 50 2 35.6
03:45 1022 30.18 851 25.13 12.5 54.4 49 2.1 35.8
03:50 1022 30.18 851 25.13 12.3 54.1 51 2.4 36.4
03:55 1022 30.18 851 25.13 12 53.5 52 2.6 36.6
04:00 1022 30.18 851 25.13 11.8 53.3 52 2.5 36.4
04:05 1022 30.18 851 25.13 12 53.6 51 2.2 36
04:10 1022 30.18 851 25.13 12 53.6 53 2.8 37
04:15 1022 30.18 851 25.13 11.6 52.9 54 2.6 36.7
04:20 1022 30.18 851 25.13 11.5 52.7 54 2.5 36.5
04:25 1022 30.18 851 25.13 11.6 52.8 52 2.2 36
04:30 1022 30.18 851 25.13 11.7 53.1 53 2.5 36.6
04:35 1022 30.18 851 25.13 11.7 53 54 2.8 37.1
04:40 1022 30.18 851 25.13 11.2 52.2 56 2.9 37.2
04:45 1022 30.18 851 25.13 11.1 52 55 2.4 36.4
04:50 1022 30.18 851 25.13 11.3 52.3 54 2.2 36
04:55 1022 30.18 851 25.13 11.5 52.7 52 2.1 35.8
05:00 1022 30.18 851 25.13 11.9 53.3 50 1.9 35.4
05:05 1022 30.18 851 25.13 12 53.7 51 2.3 36.1
05:10 1022 30.18 851 25.13 11.6 52.9 55 2.9 37.2
05:15 1022 30.18 851 25.13 11.2 52.1 56 2.7 36.9
05:20 1022 30.18 851 25.13 11 51.8 56 2.5 36.6
05:25 1022 30.18 851 25.13 11.2 52.1 55 2.6 36.8
05:30 1022 30.18 851 25.13 11.4 52.4 54 2.3 36.2
05:35 1022 30.18 851 25.13 11.3 52.4 54 2.4 36.2
05:40 1022 30.18 851 25.13 11.3 52.3 55 2.7 36.9
05:45 1022 30.18 851 25.13 11 51.8 57 2.8 37.1
05:50 1022 30.18 851 25.13 10.9 51.6 57 2.7 36.9
05:55 1022 30.18 851 25.13 10.9 51.6 56 2.6 36.8
06:00 1022 30.18 851 25.13 11.1 52 56 2.7 36.9
06:05 1022 30.18 851 25.13 11.3 52.4 55 2.6 36.7
06:10 1022 30.18 851 25.13 11.6 52.9 53 2.4 36.3
06:15 1022 30.18 851 25.13 12 53.5 51 2.2 35.9
06:20 1022 30.18 851 25.13 12.1 53.8 51 2.2 36
06:25 1022 30.18 851 25.13 11.9 53.4 52 2.5 36.5
06:30 1022 30.18 851 25.13 11.3 52.4 57 3.2 37.7
06:35 1022 30.18 851 25.13 10.4 50.8 58 2.6 36.6
06:40 1022 30.18 851 25.13 11.2 52.2 49 0.9 33.7
06:45 1022 30.18 851 25.13 11.8 53.3 51 2.1 35.7
06:50 1022 30.18 851 25.13 12.3 54.1 50 2.1 35.8
06:55 1022 30.18 851 25.13 11.9 53.4 54 2.8 37
07:00 1022 30.18 852 25.16 11 51.8 57 2.8 37
07:05 1022 30.18 851 25.13 11 51.8 55 2.4 36.4
07:10 1022 30.18 852 25.16 11.4 52.5 54 2.3 36.2
07:15 1022 30.18 852 25.16 11.6 53 53 2.5 36.6
07:20 1022 30.18 852 25.16 11.7 53 53 2.6 36.6
07:25 1022 30.18 852 25.16 11.7 53.1 54 2.7 36.9
07:30 1023 30.21 852 25.16 11.7 53.1 55 3.1 37.6
07:35 1023 30.21 852 25.16 11.9 53.4 56 3.4 38
07:40 1023 30.21 852 25.16 12.2 54 53 3.1 37.5
07:45 1023 30.21 852 25.16 12.6 54.6 53 3.3 38
07:50 1023 30.21 852 25.16 12.7 54.8 53 3.4 38
07:55 1023 30.21 852 25.16 12.9 55.3 53 3.6 38.5
08:00 1023 30.21 852 25.16 13.1 55.5 54 4.1 39.4
08:05 1023 30.21 852 25.16 13.1 55.5 53 3.7 38.7
08:10 1023 30.21 852 25.16 13.3 56 52 3.8 38.8
08:15 1023 30.21 852 25.16 13.7 56.6 51 3.7 38.7
08:20 1023 30.21 852 25.16 14.2 57.5 50 4.1 39.3
08:25 1023 30.21 852 25.16 14.6 58.3 50 4.4 39.9
08:30 1023 30.21 852 25.16 14.7 58.4 49 4.1 39.3
08:35 1023 30.21 852 25.16 14.9 58.7 49 4.2 39.5
08:40 1023 30.21 852 25.16 15.1 59.2 49 4.5 40.2
08:45 1023 30.21 852 25.16 15.5 59.9 48 4.7 40.5
08:50 1023 30.21 852 25.16 16 60.9 47 4.8 40.6
08:55 1023 30.21 852 25.16 16.2 61.1 48 5.1 41.2
09:00 1023 30.21 852 25.16 16.3 61.3 45 4.4 40
09:05 1023 30.21 852 25.16 16.9 62.5 44 4.8 40.6
09:10 1023 30.21 852 25.16 17.1 62.7 40 3.4 38
09:15 1023 30.21 852 25.16 17.5 63.5 41 4.1 39.4
09:20 1023 30.21 852 25.16 17.7 63.8 42 4.6 40.3
09:25 1023 30.21 852 25.16 17.5 63.6 41 4.2 39.6
09:30 1023 30.21 852 25.16 17.8 64.1 40 4.2 39.6
09:35 1023 30.21 852 25.16 17.8 64 40 4.2 39.5
09:40 1023 30.21 852 25.16 17.9 64.2 39 4.1 39.3
09:45 1023 30.21 852 25.16 18.5 65.4 37 3.9 38.9
09:50 1023 30.21 852 25.16 19 66.3 35 3.5 38.2
09:55 1023 30.21 853 25.19 19.1 66.4 37 4.1 39.4
10:00 1023 30.21 853 25.19 19.4 66.9 35 3.8 38.8
10:05 1023 30.21 853 25.19 20.2 68.3 34 3.8 38.9
10:10 1023 30.21 853 25.19 20.2 68.4 34 3.9 39
10:15 1023 30.21 853 25.19 20.3 68.5 33 3.5 38.3
10:20 1023 30.21 853 25.19 21.1 70 31 3.6 38.5
10:25 1023 30.21 853 25.19 21.3 70.3 32 4 39.1
10:30 1023 30.21 853 25.19 20.8 69.4 31 3.4 38.1
10:35 1023 30.21 853 25.19 21.4 70.5 30 3.4 38.2
10:40 1023 30.21 853 25.19 22 71.6 30 3.8 38.9
10:45 1024 30.24 853 25.19 21.1 70 31 3.4 38
10:50 1024 30.24 853 25.19 20.8 69.4 30 2.5 36.6
10:55 1024 30.24 853 25.19 21.6 70.9 29 2.9 37.2
11:00 1024 30.24 853 25.19 21.2 70.2 28 2.3 36.1
11:05 1024 30.24 853 25.19 21.7 71.1 29 2.9 37.2
11:10 1024 30.24 853 25.19 22.8 73 26 2.6 36.6
11:15 1024 30.24 853 25.19 22.6 72.8 28 3.4 38.2
11:20 1024 30.24 853 25.19 23.2 73.7 27 3.1 37.6
11:25 1024 30.24 853 25.19 23.4 74.1 27 3.5 38.3
11:30 1023 30.21 853 25.19 23.7 74.6 27 3.6 38.6
11:35 1023 30.21 853 25.19 23 73.3 27 3.3 38
11:40 1023 30.21 853 25.19 23.7 74.6 28 4.1 39.4
11:45 1023 30.21 853 25.19 24.3 75.8 26 4 39.3
11:50 1023 30.21 853 25.19 24.3 75.7 27 4 39.3
11:55 1023 30.21 853 25.19 24.4 75.9 26 4 39.2
12:00 1023 30.21 853 25.19 24.3 75.8 27 4.1 39.4
12:05 1023 30.21 852 25.16 23.9 75 28 4.5 40
12:10 1023 30.21 852 25.16 24.7 76.4 27 4.7 40.4
12:15 1023 30.21 852 25.16 25.2 77.3 27 5.3 41.5
12:20 1023 30.21 852 25.16 25.7 78.3 26 5 41
12:25 1023 30.21 852 25.16 25.7 78.2 25 4.6 40.3
12:30 1023 30.21 852 25.16 25.1 77.2 26 4.5 40.1
12:35 1023 30.21 852 25.16 24.7 76.5 27 4.6 40.3
12:40 1023 30.21 852 25.16 24.6 76.3 25 3.5 38.2
12:45 1023 30.21 852 25.16 25.4 77.8 25 4.1 39.3
12:50 1023 30.21 852 25.16 25.7 78.2 23 3.4 38.1
12:55 1023 30.21 852 25.16 25.3 77.6 23 3.1 37.6
13:00 1023 30.21 852 25.16 25.8 78.5 22 2.9 37.1
13:05 1023 30.21 852 25.16 26.4 79.4 20 1.5 34.8
13:10 1023 30.21 852 25.16 26.7 80.1 20 1.8 35.3
13:15 1023 30.21 852 25.16 26.9 80.4 21 2.8 37
13:20 1023 30.21 852 25.16 27.1 80.9 16 -0.8 30.6
13:25 1023 30.21 852 25.16 27.2 80.9 16 -0.9 30.4
13:30 1023 30.21 852 25.16 27.7 81.9 15 -0.7 30.8
13:35 1023 30.21 852 25.16 27.9 82.2 15 -0.5 31.2
13:40 1023 30.21 852 25.16 27.6 81.8 15 -0.9 30.5
13:45 1023 30.21 852 25.16 27.5 81.6 15 -0.7 30.8
13:50 1023 30.21 852 25.16 27.9 82.3 15 -0.6 30.9
13:55 1023 30.21 852 25.16 27.9 82.2 15 -0.8 30.5
14:00 1023 30.21 852 25.16 28.1 82.6 16 0 32.1
14:05 1023 30.21 852 25.16 28.2 82.8 15 -1 30.2
14:10 1023 30.21 852 25.16 28 82.4 15 -0.4 31.4
14:15 1023 30.21 852 25.16 28 82.3 15 -0.8 30.6
14:20 1023 30.21 852 25.16 27.9 82.2 15 -1.1 30
14:25 1023 30.21 852 25.16 28.2 82.7 15 -0.5 31
14:30 1023 30.21 852 25.16 28.2 82.7 15 -1 30.2
14:35 1023 30.21 852 25.16 28.2 82.8 15 -0.7 30.7
14:40 1023 30.21 852 25.16 28.5 83.4 15 -0.2 31.6
14:45 1023 30.21 852 25.16 28.7 83.7 14 -0.6 30.9
14:50 1022 30.18 852 25.16 28.9 84.1 15 -0.4 31.3
14:55 1022 30.18 852 25.16 29 84.3 15 0.2 32.3
15:00 1022 30.18 852 25.16 29 84.2 15 0.5 32.9
15:05 1022 30.18 852 25.16 28.8 83.8 15 -0.1 31.8
15:10 1022 30.18 852 25.16 28.6 83.6 16 0.4 32.7
15:15 1022 30.18 851 25.13 28.8 83.8 15 0.1 32.1
15:20 1022 30.18 851 25.13 29.2 84.6 15 0.5 32.9
15:25 1022 30.18 851 25.13 29.4 85 15 0.2 32.4
15:30 1022 30.18 851 25.13 28.7 83.6 16 0.4 32.7
15:35 1022 30.18 851 25.13 29 84.2 16 0.8 33.5
15:40 1022 30.18 851 25.13 29.7 85.4 15 0.5 32.9
15:45 1022 30.18 851 25.13 29.5 85.1 16 1.1 33.9
15:50 1022 30.18 851 25.13 29.4 85 15 0.3 32.5
15:55 1022 30.18 851 25.13 30 86.1 15 0.5 33
16:00 1022 30.18 851 25.13 29 84.1 16 0.7 33.2
16:05 1022 30.18 851 25.13 28 82.4 16 0.6 33.1
16:10 1022 30.18 851 25.13 28.4 83.1 16 0.4 32.6
16:15 1022 30.18 851 25.13 29 84.1 15 0.1 32.1
16:20 1022 30.18 851 25.13 29.1 84.5 15 0.1 32.2
16:25 1022 30.18 851 25.13 29.8 85.6 14 0.2 32.3
16:30 1022 30.18 851 25.13 30 86 15 0.9 33.6
16:35 1022 30.18 851 25.13 29.6 85.3 14 -0.1 31.8
16:40 1022 30.18 851 25.13 29.6 85.3 14 0 32
16:45 1022 30.18 851 25.13 29.6 85.3 14 -0.1 31.9
16:50 1022 30.18 851 25.13 29.9 85.7 14 0.1 32.1
16:55 1022 30.18 851 25.13 29.7 85.4 15 0.5 32.8
17:00 1022 30.18 851 25.13 29.7 85.5 14 0.1 32.1
17:05 1022 30.18 851 25.13 29.6 85.2 15 0.4 32.7
17:10 1022 30.18 851 25.13 28.7 83.6 15 -0.2 31.7
17:15 1022 30.18 851 25.13 28.6 83.4 15 0 32
17:20 1022 30.18 851 25.13 28.7 83.7 15 0.2 32.4
17:25 1022 30.18 851 25.13 29.3 84.8 14 -0.2 31.6
17:30 1022 30.18 851 25.13 29.6 85.2 15 0.2 32.4
17:35 1022 30.18 851 25.13 28.9 84 15 0.3 32.5
17:40 1022 30.18 851 25.13 28.6 83.4 16 0.7 33.3
17:45 1022 30.18 851 25.13 29.2 84.5 15 -0 31.9
17:50 1022 30.18 851 25.13 29.3 84.7 15 -0 31.9
17:55 1022 30.18 851 25.13 28.9 83.9 15 -0.3 31.4
18:00 1022 30.18 851 25.13 28.6 83.4 15 -0.5 31
18:05 1022 30.18 851 25.13 28.7 83.6 15 0.2 32.4
18:10 1022 30.18 851 25.13 29.4 84.9 15 0.4 32.7
18:15 1022 30.18 851 25.13 28.7 83.7 15 0 32
18:20 1022 30.18 851 25.13 28.7 83.6 15 0.1 32.3
18:25 1022 30.18 851 25.13 28.3 83 16 0.2 32.3
18:30 1022 30.18 851 25.13 28.5 83.2 15 -0.5 31.1
18:35 1022 30.18 851 25.13 28.4 83.2 15 -0.2 31.6
18:40 1022 30.18 851 25.13 28.4 83.1 15 -0.3 31.5
18:45 1022 30.18 851 25.13 28.1 82.5 16 -0.2 31.7
18:50 1022 30.18 851 25.13 27.7 81.8 16 0.3 32.5
18:55 1022 30.18 851 25.13 27.5 81.5 16 -0.4 31.2
19:00 1021 30.15 851 25.13 27.6 81.6 17 0.6 33
19:05 1021 30.15 851 25.13 27.5 81.5 16 -0.2 31.7
19:10 1021 30.15 851 25.13 27.5 81.5 16 -0.1 31.8
19:15 1021 30.15 851 25.13 27.4 81.4 17 0.2 32.3
19:20 1022 30.18 851 25.13 27.4 81.2 17 0.6 33.1
19:25 1022 30.18 851 25.13 27.3 81.1 17 0.3 32.5
19:30 1022 30.18 851 25.13 27.1 80.8 18 0.7 33.2
19:35 1022 30.18 851 25.13 27 80.6 17 0.3 32.5
19:40 1022 30.18 851 25.13 26.9 80.5 18 0.6 33.1
19:45 1022 30.18 851 25.13 26.9 80.3 17 0.4 32.8
19:50 1022 30.18 851 25.13 26.8 80.3 17 0 32.1
19:55 1022 30.18 851 25.13 26.8 80.2 19 1.8 35.2
20:00 1022 30.18 851 25.13 26.5 79.8 24 4.5 40.1
20:05 1022 30.18 851 25.13 25.9 78.6 30 7 44.7
20:10 1022 30.18 851 25.13 25.4 77.8 29 6.5 43.8
20:15 1022 30.18 851 25.13 25.1 77.3 30 6.7 44
20:20 1022 30.18 851 25.13 24.6 76.4 29 5.9 42.6
20:25 1022 30.18 851 25.13 24.5 76.1 33 7.5 45.5
20:30 1022 30.18 851 25.13 23.3 73.9 36 7.7 45.8
20:35 1022 30.18 851 25.13 22 71.6 40 8.1 46.6
20:40 1022 30.18 851 25.13 21.7 71.1 40 7.6 45.6
20:45 1022 30.18 851 25.13 21.6 70.8 36 6.2 43.1
20:50 1022 30.18 851 25.13 21.2 70.2 34 4.9 40.8
20:55 1022 30.18 851 25.13 20.9 69.6 35 5.1 41.1
21:00 1022 30.18 851 25.13 20.1 68.1 39 6 42.8
21:05 1022 30.18 851 25.13 19.9 67.7 35 4.1 39.4
21:10 1022 30.18 851 25.13 20.2 68.4 37 5.2 41.4
21:15 1022 30.18 851 25.13 19.9 67.9 33 3.5 38.4
21:20 1022 30.18 852 25.16 20 68.1 32 3.1 37.5
21:25 1022 30.18 852 25.16 20.3 68.5 31 2.5 36.6
21:30 1022 30.18 852 25.16 20.6 69.1 30 2.5 36.5
21:35 1022 30.18 852 25.16 20.3 68.5 32 3.2 37.7
21:40 1022 30.18 852 25.16 19.7 67.4 32 2.8 37.1
21:45 1022 30.18 852 25.16 19.5 67.1 33 3 37.4
21:50 1022 30.18 852 25.16 19.2 66.6 34 3.1 37.6
21:55 1022 30.18 852 25.16 19 66.3 34 3 37.4
22:00 1023 30.21 852 25.16 18.8 65.9 34 3 37.4
22:05 1023 30.21 852 25.16 18.5 65.3 35 2.8 37
22:10 1023 30.21 852 25.16 18.9 66.1 32 2.1 35.8
22:15 1023 30.21 852 25.16 19.4 66.9 32 2.5 36.6
22:20 1023 30.21 852 25.16 19.3 66.7 33 2.6 36.7
22:25 1023 30.21 852 25.16 19 66.3 33 2.5 36.5
22:30 1023 30.21 852 25.16 18.9 66 33 2.4 36.2
22:35 1023 30.21 852 25.16 18.8 65.8 34 2.5 36.5
22:40 1023 30.21 852 25.16 18.4 65.1 34 2.5 36.6
22:45 1023 30.21 852 25.16 18.2 64.7 35 2.6 36.6
22:50 1023 30.21 852 25.16 18.2 64.8 34 2.1 35.8
22:55 1023 30.21 852 25.16 18.4 65.1 34 2.3 36.1
23:00 1023 30.21 852 25.16 18.6 65.4 33 2.1 35.7
23:05 1023 30.21 852 25.16 18.5 65.3 34 2.3 36.1
23:10 1023 30.21 852 25.16 18.4 65 34 2.3 36.2
23:15 1023 30.21 852 25.16 18.5 65.2 33 1.9 35.5
23:20 1023 30.21 852 25.16 18.8 65.8 32 2 35.6
23:25 1023 30.21 852 25.16 18.8 65.9 33 2.3 36.1
23:30 1023 30.21 852 25.16 18.4 65.2 35 2.9 37.1
23:35 1023 30.21 852 25.16 18.4 65.1 33 1.8 35.3
23:40 1023 30.21 852 25.16 18.4 65.2 34 2.2 36
23:45 1023 30.21 852 25.16 18.6 65.5 32 1.7 35
23:50 1023 30.21 852 25.16 18.8 65.8 34 2.8 37
23:55 1023 30.21 852 25.16 18.2 64.8 36 2.8 37.1
24:00 1023 30.21 852 25.16 17.5 63.4 39 3.4 38.2